Pudu — CBPJ — position and weather

sailwx.info

Track history (hours):
 
Tides and Currents Weather Stations Pressure Air Temp Water Temp Dewpoint Dewpoint Depression Visibility Wind Speed Wind Dir Waves Ship Positions

Pudu

Last reported at 2017-Nov-10 16:25 UTC. Time now 2017-Nov-18 02:56 UTC.
Position S 33°01' W 071°47'.

Length 183 m; draft 8.4 m.

Type: Tanker. MMSI: 725001925.

Date/timePositionNaut miles runAvg speedWind from/ knotsBaromVisibWave heightAir tempDewpointWater temp
2017-Nov-10 16:25S 33°01' W 071°47'4 8.9
2017-Nov-10 16:00S 32°58' W 071°45'5 9.0
2017-Nov-10 15:30S 32°54' W 071°43'4 9.0
2017-Nov-10 15:00S 32°50' W 071°40'5 9.2
2017-Nov-10 14:30S 32°46' W 071°38'4 8.2
2017-Nov-10 14:00S 32°44' W 071°33'3 0.1
2017-Nov-09 15:55S 32°46' W 071°30'1 0.0
2017-Nov-08 16:58S 32°45' W 071°30'1 2.1
2017-Nov-08 16:25S 32°45' W 071°31'2 4.4
2017-Nov-08 15:58S 32°45' W 071°34'4 9.3
2017-Nov-08 15:30S 32°45' W 071°39'612.2
2017-Nov-08 15:00S 32°46' W 071°46'  
Track history (hours):
 
Tides and Currents Weather Stations Pressure Air Temp Water Temp Dewpoint Dewpoint Depression Visibility Wind Speed Wind Dir Waves Ship Positions

Pudu

Last reported at 2017-Nov-10 16:25 UTC. Time now 2017-Nov-18 02:56 UTC.
Position S 33°01' W 071°47'.

Length 183 m; draft 8.4 m.

Type: Tanker. MMSI: 725001925.

Date/timePositionNaut miles runAvg speedWind from/ knotsBaromVisibWave heightAir tempDewpointWater temp
2017-Nov-10 16:25S 33°01' W 071°47'4 8.9
2017-Nov-10 16:00S 32°58' W 071°45'5 9.0
2017-Nov-10 15:30S 32°54' W 071°43'4 9.0
2017-Nov-10 15:00S 32°50' W 071°40'5 9.2
2017-Nov-10 14:30S 32°46' W 071°38'4 8.2
2017-Nov-10 14:00S 32°44' W 071°33'3 0.1
2017-Nov-09 15:55S 32°46' W 071°30'1 0.0
2017-Nov-08 16:58S 32°45' W 071°30'1 2.1
2017-Nov-08 16:25S 32°45' W 071°31'2 4.4
2017-Nov-08 15:58S 32°45' W 071°34'4 9.3
2017-Nov-08 15:30S 32°45' W 071°39'612.2
2017-Nov-08 15:00S 32°46' W 071°46'  

Dump ship's entire track history